createdAt,value
2023-04-17T00:01:11.383Z,9.80
2023-04-17T00:03:49.571Z,13.40
2023-04-17T00:06:27.687Z,14.00
2023-04-17T00:08:58.689Z,14.60
2023-04-17T00:11:33.123Z,17.60
2023-04-17T00:14:11.834Z,15.10
2023-04-17T00:16:49.595Z,9.20
2023-04-17T00:19:27.925Z,13.10
2023-04-17T00:22:05.955Z,18.40
2023-04-17T00:24:43.956Z,15.30
2023-04-17T00:27:14.145Z,10.80
2023-04-17T00:29:52.832Z,13.20
2023-04-17T00:32:30.641Z,16.70
2023-04-17T00:35:09.495Z,17.50
2023-04-17T00:37:47.524Z,15.20
2023-04-17T00:40:21.791Z,15.90
2023-04-17T00:43:02.123Z,14.30
2023-04-17T00:45:35.421Z,16.70
2023-04-17T00:48:14.365Z,11.30
2023-04-17T00:50:52.664Z,18.70
2023-04-17T00:53:31.523Z,15.70
2023-04-17T00:56:15.553Z,16.10
2023-04-17T00:58:53.545Z,16.40
2023-04-17T01:01:31.285Z,17.70
2023-04-17T01:04:13.694Z,13.60
2023-04-17T01:06:54.041Z,16.60
2023-04-17T01:09:32.040Z,16.10
2023-04-17T01:12:23.374Z,14.60
2023-04-17T01:14:56.728Z,16.90
2023-04-17T01:17:34.470Z,14.50
2023-04-17T01:20:13.801Z,17.60
2023-04-17T01:22:54.162Z,20.00
2023-04-17T01:25:32.631Z,15.30
2023-04-17T01:28:12.315Z,15.80
2023-04-17T01:30:51.278Z,17.00
2023-04-17T01:33:29.116Z,17.90
2023-04-17T01:35:59.662Z,15.00
2023-04-17T01:38:38.143Z,15.00
2023-04-17T01:41:16.273Z,16.30
2023-04-17T01:43:54.241Z,12.00
2023-04-17T01:46:32.531Z,13.20
2023-04-17T01:49:12.826Z,15.10
2023-04-17T01:51:51.401Z,14.00
2023-04-17T01:54:29.339Z,19.70
2023-04-17T01:57:08.195Z,13.90
2023-04-17T01:59:47.025Z,16.20
2023-04-17T02:02:17.657Z,17.70
2023-04-17T02:04:53.901Z,15.50
2023-04-17T02:07:32.067Z,14.60
2023-04-17T02:10:11.585Z,10.00
2023-04-17T02:12:49.869Z,15.60
2023-04-17T02:15:29.070Z,17.20
2023-04-17T02:18:07.906Z,16.50
2023-04-17T02:20:46.849Z,17.00
2023-04-17T02:23:17.604Z,16.60
2023-04-17T02:25:56.831Z,14.30
2023-04-17T02:28:35.508Z,13.70
2023-04-17T02:31:19.125Z,11.60
2023-04-17T02:33:57.343Z,15.70
2023-04-17T02:36:36.066Z,13.50
2023-04-17T02:39:14.768Z,8.70
2023-04-17T02:41:57.293Z,12.50
2023-04-17T02:44:37.083Z,15.70
2023-04-17T02:47:15.516Z,16.70
2023-04-17T02:49:53.249Z,15.70
2023-04-17T02:52:24.772Z,15.50
2023-04-17T02:54:58.029Z,17.40
2023-04-17T02:57:35.069Z,13.90
2023-04-17T03:00:14.549Z,15.10
2023-04-17T03:02:53.711Z,10.50
2023-04-17T03:05:33.059Z,8.70
2023-04-17T03:08:12.429Z,14.50
2023-04-17T03:10:50.691Z,8.40
2023-04-17T03:13:29.508Z,10.50
2023-04-17T03:16:08.418Z,14.40
2023-04-17T03:18:48.413Z,11.30
2023-04-17T03:21:21.660Z,10.30
2023-04-17T03:24:00.383Z,14.30
2023-04-17T03:26:38.580Z,13.80
2023-04-17T03:29:16.877Z,14.10
2023-04-17T03:31:47.199Z,17.40
2023-04-17T03:34:29.455Z,15.60
2023-04-17T03:36:59.761Z,13.80
2023-04-17T03:39:36.829Z,7.90
2023-04-17T03:42:15.231Z,15.80
2023-04-17T03:44:45.559Z,15.90
2023-04-17T03:47:23.443Z,9.20
2023-04-17T03:50:01.889Z,11.20
2023-04-17T03:52:32.715Z,10.80
2023-04-17T03:55:04.577Z,14.40
2023-04-17T03:57:37.882Z,16.00
2023-04-17T04:00:17.200Z,10.60
2023-04-17T04:02:54.619Z,10.80
2023-04-17T04:05:32.436Z,15.40
2023-04-17T04:08:10.947Z,17.00
2023-04-17T04:10:45.662Z,10.60
2023-04-17T04:13:23.321Z,14.90
2023-04-17T04:16:01.400Z,12.60
2023-04-17T04:18:38.554Z,15.20
2023-04-17T04:21:15.680Z,21.80
2023-04-17T04:23:53.211Z,10.60
2023-04-17T04:26:25.027Z,9.30
2023-04-17T04:29:01.587Z,11.30
2023-04-17T04:31:38.596Z,9.70
2023-04-17T04:34:17.255Z,10.20
2023-04-17T04:36:54.688Z,10.30
2023-04-17T04:39:33.070Z,9.30
2023-04-17T04:42:12.503Z,12.90
2023-04-17T04:44:50.394Z,10.50
2023-04-17T04:47:28.183Z,12.90
2023-04-17T04:50:06.166Z,13.70
2023-04-17T04:52:44.604Z,14.80
2023-04-17T04:55:22.383Z,14.50
2023-04-17T04:58:00.078Z,17.70
2023-04-17T05:00:38.074Z,14.70
2023-04-17T05:03:16.237Z,13.10
2023-04-17T05:05:55.223Z,11.70
2023-04-17T05:08:35.070Z,15.50
2023-04-17T05:11:06.828Z,7.80
2023-04-17T05:13:41.396Z,19.10
2023-04-17T05:16:19.285Z,14.60
2023-04-17T05:18:58.317Z,12.20
2023-04-17T05:21:31.040Z,13.90
2023-04-17T05:24:10.674Z,15.30
2023-04-17T05:26:48.924Z,18.00
2023-04-17T05:29:27.852Z,16.40
2023-04-17T05:32:07.936Z,15.00
2023-04-17T05:34:39.899Z,11.60
2023-04-17T05:37:19.346Z,19.20
2023-04-17T05:39:57.601Z,12.80
2023-04-17T05:42:34.659Z,14.70
2023-04-17T05:45:07.997Z,17.70
2023-04-17T05:47:42.503Z,15.60
2023-04-17T05:50:21.150Z,15.60
2023-04-17T05:52:51.427Z,15.60
2023-04-17T05:55:31.898Z,15.90
2023-04-17T05:58:23.022Z,16.60
2023-04-17T06:01:00.808Z,14.10
2023-04-17T06:03:39.058Z,21.70
2023-04-17T06:06:18.090Z,17.50
2023-04-17T06:08:56.036Z,14.30
2023-04-17T06:11:26.797Z,12.10
2023-04-17T06:14:07.182Z,10.00
2023-04-17T06:16:40.598Z,10.20
2023-04-17T06:19:18.339Z,13.30
2023-04-17T06:21:57.198Z,15.80
2023-04-17T06:24:37.593Z,20.50
2023-04-17T06:27:16.722Z,18.70
2023-04-17T06:29:46.982Z,17.60
2023-04-17T06:32:22.459Z,18.30
2023-04-17T06:34:59.584Z,18.70
2023-04-17T06:37:38.069Z,19.70
2023-04-17T06:40:16.125Z,21.80
2023-04-17T06:42:54.512Z,9.00
2023-04-17T06:45:32.701Z,13.10
2023-04-17T06:48:12.587Z,10.80
2023-04-17T06:50:45.393Z,14.20
2023-04-17T06:53:26.040Z,15.40
2023-04-17T06:56:04.963Z,11.50
2023-04-17T06:58:44.765Z,18.60
2023-04-17T07:01:22.730Z,12.00
2023-04-17T07:04:01.774Z,20.70
2023-04-17T07:06:40.053Z,18.50
2023-04-17T07:09:19.012Z,21.80
2023-04-17T07:11:58.589Z,17.90
2023-04-17T07:14:36.973Z,20.50
2023-04-17T07:17:08.571Z,18.20
2023-04-17T07:19:44.059Z,15.80
2023-04-17T07:22:24.007Z,23.50
2023-04-17T07:24:56.751Z,19.50
2023-04-17T07:27:35.671Z,16.40
2023-04-17T07:30:14.410Z,17.10
2023-04-17T07:32:52.921Z,18.40
2023-04-17T07:35:32.000Z,16.40
2023-04-17T07:38:12.206Z,17.10
2023-04-17T07:40:50.881Z,17.80
2023-04-17T07:43:29.784Z,17.50
2023-04-17T07:46:09.021Z,20.30
2023-04-17T07:48:47.779Z,14.60
2023-04-17T07:51:26.812Z,19.70
2023-04-17T07:54:06.289Z,14.80
2023-04-17T07:56:47.584Z,18.30
2023-04-17T07:59:26.511Z,18.30
2023-04-17T08:02:06.430Z,17.10
2023-04-17T08:04:45.191Z,15.50
2023-04-17T08:07:23.141Z,15.80
2023-04-17T08:10:01.328Z,17.00
2023-04-17T08:12:40.782Z,15.30
2023-04-17T08:15:18.669Z,19.20
2023-04-17T08:17:53.124Z,17.10
2023-04-17T08:20:28.828Z,18.00
2023-04-17T08:23:06.553Z,19.90
2023-04-17T08:25:45.188Z,17.00
2023-04-17T08:28:24.827Z,15.30
2023-04-17T08:31:05.223Z,19.20
2023-04-17T08:33:43.454Z,12.60
2023-04-17T08:36:21.825Z,16.80
2023-04-17T08:42:13.354Z,16.10
2023-04-17T08:45:05.450Z,14.90
2023-04-17T08:47:46.162Z,16.60
2023-04-17T08:50:25.622Z,16.50
2023-04-17T08:53:04.623Z,21.20
2023-04-17T08:55:43.480Z,19.10
2023-04-17T08:58:28.644Z,18.20
2023-04-17T09:01:20.984Z,19.40
2023-04-17T09:04:00.193Z,13.90
2023-04-17T09:06:55.631Z,15.00
2023-04-17T09:09:47.154Z,14.70
2023-04-17T09:12:27.443Z,15.10
2023-04-17T09:15:19.464Z,18.60
2023-04-17T09:17:51.291Z,16.70
2023-04-17T09:20:28.112Z,17.10
2023-04-17T09:23:06.916Z,12.60
2023-04-17T09:25:39.772Z,14.30
2023-04-17T09:28:18.837Z,15.80
2023-04-17T09:30:58.253Z,12.50
2023-04-17T09:33:31.941Z,14.00
2023-04-17T09:36:25.976Z,14.90
2023-04-17T09:39:06.901Z,16.20
2023-04-17T09:41:45.825Z,13.00
2023-04-17T09:44:45.982Z,12.10
2023-04-17T09:47:27.520Z,14.10
2023-04-17T09:50:07.517Z,12.60
2023-04-17T09:52:48.591Z,11.60
2023-04-17T09:55:30.897Z,12.10
2023-04-17T09:58:10.381Z,16.70
2023-04-17T10:00:48.937Z,9.60
2023-04-17T10:03:28.633Z,11.00
2023-04-17T10:06:09.074Z,17.10
2023-04-17T10:08:48.009Z,7.80
2023-04-17T10:11:37.399Z,18.00
2023-04-17T10:14:31.930Z,13.50
2023-04-17T10:17:35.429Z,18.10
2023-04-17T10:20:29.074Z,14.80
2023-04-17T10:23:02.856Z,9.70
2023-04-17T10:25:41.643Z,13.50
2023-04-17T10:28:51.734Z,13.60
2023-04-17T10:32:06.071Z,13.40
2023-04-17T10:34:43.974Z,16.90
2023-04-17T10:37:52.955Z,14.60
2023-04-17T10:40:33.044Z,14.20
2023-04-17T10:43:26.975Z,12.10
2023-04-17T10:46:21.871Z,14.40
2023-04-17T10:49:00.877Z,13.20
2023-04-17T10:51:43.380Z,12.40
2023-04-17T10:54:22.242Z,9.60
2023-04-17T10:57:00.139Z,17.70
2023-04-17T10:59:39.476Z,14.90
2023-04-17T11:02:19.610Z,22.80
2023-04-17T11:05:09.772Z,12.40
2023-04-17T11:07:52.385Z,16.10
2023-04-17T11:10:30.571Z,13.20
2023-04-17T11:13:10.755Z,10.10
2023-04-17T11:15:49.905Z,13.60
2023-04-17T11:18:28.767Z,9.50
2023-04-17T11:21:08.987Z,9.20
2023-04-17T11:23:55.517Z,11.40
2023-04-17T11:26:32.175Z,10.40
2023-04-17T11:29:22.137Z,9.70
2023-04-17T11:31:57.383Z,11.40
2023-04-17T11:34:33.272Z,12.00
2023-04-17T11:37:14.151Z,8.50
2023-04-17T11:39:52.048Z,10.70
2023-04-17T11:42:34.040Z,10.90
2023-04-17T11:45:13.695Z,10.20
2023-04-17T11:47:52.913Z,7.80
2023-04-17T11:50:32.989Z,10.50
2023-04-17T11:53:10.102Z,10.60
2023-04-17T11:55:50.410Z,10.00
2023-04-17T11:58:30.008Z,13.40
2023-04-17T12:01:10.620Z,10.10
2023-04-17T12:03:50.366Z,11.70
2023-04-17T12:06:37.752Z,12.40
2023-04-17T12:09:27.734Z,10.10
2023-04-17T12:12:09.570Z,8.20
2023-04-17T12:14:51.973Z,11.90
2023-04-17T12:17:31.415Z,9.70
2023-04-17T12:20:06.920Z,11.60
2023-04-17T12:22:44.930Z,11.90
2023-04-17T12:25:24.825Z,7.00
2023-04-17T12:27:58.196Z,9.30
2023-04-17T12:30:41.455Z,12.40
2023-04-17T12:33:13.398Z,9.60
2023-04-17T12:35:52.554Z,7.60
2023-04-17T12:38:31.280Z,5.20
2023-04-17T12:41:09.574Z,6.40
2023-04-17T12:43:47.506Z,9.50
2023-04-17T12:46:25.352Z,6.90
2023-04-17T12:49:04.422Z,9.00
2023-04-17T12:51:42.251Z,9.00
2023-04-17T12:54:15.706Z,8.40
2023-04-17T12:56:54.109Z,9.50
2023-04-17T12:59:30.880Z,11.40
2023-04-17T13:02:11.013Z,9.20
2023-04-17T13:04:52.443Z,7.40
2023-04-17T13:07:35.747Z,9.50
2023-04-17T13:10:11.677Z,10.90
2023-04-17T13:12:43.472Z,6.40
2023-04-17T13:15:18.973Z,7.30
2023-04-17T13:17:55.737Z,7.30
2023-04-17T13:20:34.469Z,8.00
2023-04-17T13:23:12.741Z,7.30
2023-04-17T13:25:51.296Z,4.70
2023-04-17T13:28:30.344Z,11.60
2023-04-17T13:31:09.082Z,5.80
2023-04-17T13:33:49.586Z,7.20
2023-04-17T13:36:28.307Z,6.80
2023-04-17T13:39:00.317Z,6.90
2023-04-17T13:41:41.915Z,8.00
2023-04-17T13:44:16.846Z,6.80
2023-04-17T13:46:49.143Z,3.60
2023-04-17T13:49:30.395Z,6.10
2023-04-17T13:52:09.810Z,6.60
2023-04-17T13:54:45.414Z,4.90
2023-04-17T13:57:19.187Z,7.50
2023-04-17T13:59:55.603Z,6.30
2023-04-17T14:02:27.279Z,5.00
2023-04-17T14:05:06.464Z,6.30
2023-04-17T14:07:48.067Z,4.40
2023-04-17T14:10:27.560Z,6.60
2023-04-17T14:13:07.510Z,8.50
2023-04-17T14:15:48.523Z,6.30
2023-04-17T14:18:27.481Z,6.20
2023-04-17T14:21:07.098Z,6.90
2023-04-17T14:23:45.626Z,8.70
2023-04-17T14:26:24.277Z,7.10
2023-04-17T14:29:03.370Z,8.30
2023-04-17T14:31:41.577Z,5.60
2023-04-17T14:34:12.543Z,5.50
2023-04-17T14:36:52.676Z,6.80
2023-04-17T14:39:33.337Z,7.50
2023-04-17T14:42:12.184Z,9.20
2023-04-17T14:44:44.147Z,9.70
2023-04-17T14:47:15.715Z,8.60
2023-04-17T14:49:50.351Z,6.20
2023-04-17T14:52:29.216Z,8.50
2023-04-17T14:55:08.326Z,8.80
2023-04-17T14:57:47.548Z,8.60
2023-04-17T15:00:29.793Z,7.80
2023-04-17T15:03:09.660Z,7.30
2023-04-17T15:05:48.587Z,6.70
2023-04-17T15:08:27.111Z,8.60
2023-04-17T15:11:06.092Z,7.40
2023-04-17T15:13:46.525Z,8.20
2023-04-17T15:16:19.153Z,8.50
2023-04-17T15:19:00.602Z,7.40
2023-04-17T15:21:33.273Z,7.30
2023-04-17T15:24:13.329Z,7.40
2023-04-17T15:26:52.159Z,10.10
2023-04-17T15:29:29.843Z,7.70
2023-04-17T15:32:01.541Z,9.80
2023-04-17T15:34:38.977Z,7.90
2023-04-17T15:37:13.257Z,7.70
2023-04-17T15:39:51.481Z,8.20
2023-04-17T15:42:30.751Z,7.70
2023-04-17T15:45:11.612Z,7.50
2023-04-17T15:47:50.819Z,7.50
2023-04-17T15:50:30.074Z,10.40
2023-04-17T15:53:09.028Z,6.90
2023-04-17T15:55:47.527Z,7.20
2023-04-17T15:58:25.654Z,8.60
2023-04-17T16:00:58.015Z,8.10
2023-04-17T16:03:36.191Z,7.60
2023-04-17T16:06:07.981Z,7.90
2023-04-17T16:08:40.060Z,6.30
2023-04-17T16:11:15.360Z,7.30
2023-04-17T16:13:56.541Z,7.40
2023-04-17T16:16:34.957Z,6.90
2023-04-17T16:19:14.568Z,8.30
2023-04-17T16:21:57.642Z,9.20
2023-04-17T16:24:38.162Z,7.40
2023-04-17T16:27:14.077Z,7.60
2023-04-17T16:29:52.726Z,8.90
2023-04-17T16:32:26.027Z,7.70
2023-04-17T16:35:04.663Z,7.50
2023-04-17T16:37:43.626Z,7.60
2023-04-17T16:40:17.075Z,7.70
2023-04-17T16:43:00.995Z,7.90
2023-04-17T16:45:40.796Z,5.80
2023-04-17T16:48:16.087Z,8.60
2023-04-17T16:50:56.539Z,7.80
2023-04-17T16:53:35.400Z,7.50
2023-04-17T16:56:11.731Z,7.90
2023-04-17T16:58:49.033Z,7.40
2023-04-17T17:01:24.995Z,7.80
2023-04-17T17:04:04.798Z,7.60
2023-04-17T17:06:42.419Z,6.90
2023-04-17T17:09:17.767Z,10.80
2023-04-17T17:11:57.756Z,6.80
2023-04-17T17:14:36.556Z,9.50
2023-04-17T17:17:15.780Z,7.10
2023-04-17T17:19:53.929Z,8.20
2023-04-17T17:22:33.593Z,8.10
2023-04-17T17:25:17.435Z,7.40
2023-04-17T17:27:58.912Z,7.80
2023-04-17T17:30:38.326Z,6.30
2023-04-17T17:33:18.541Z,5.80
2023-04-17T17:35:58.542Z,6.60
2023-04-17T17:38:38.105Z,7.70
2023-04-17T17:41:16.659Z,5.60
2023-04-17T17:43:57.499Z,7.10
2023-04-17T17:46:37.036Z,8.10
2023-04-17T17:49:16.670Z,6.70
2023-04-17T17:51:55.706Z,7.40
2023-04-17T17:54:37.457Z,5.30
2023-04-17T17:57:16.292Z,12.70
2023-04-17T17:59:55.913Z,7.80
2023-04-17T18:02:29.397Z,6.20
2023-04-17T18:05:10.616Z,5.60
2023-04-17T18:07:48.697Z,6.30
2023-04-17T18:10:19.582Z,8.30
2023-04-17T18:12:58.233Z,7.20
2023-04-17T18:15:29.529Z,7.90
2023-04-17T18:18:04.964Z,8.60
2023-04-17T18:20:43.455Z,7.10
2023-04-17T18:23:20.693Z,8.10
2023-04-17T18:26:03.387Z,10.60
2023-04-17T18:28:43.254Z,7.30
2023-04-17T18:31:24.817Z,9.00
2023-04-17T18:36:41.713Z,8.10
2023-04-17T18:39:20.473Z,7.30
2023-04-17T18:42:00.499Z,7.80
2023-04-17T18:44:38.985Z,9.20
2023-04-17T18:47:17.695Z,8.40
2023-04-17T18:49:58.598Z,8.50
2023-04-17T18:52:29.635Z,7.80
2023-04-17T18:55:02.212Z,6.00
2023-04-17T18:57:43.094Z,9.80
2023-04-17T19:00:21.708Z,9.30
2023-04-17T19:02:55.226Z,8.10
2023-04-17T19:05:27.906Z,10.70
2023-04-17T19:08:04.812Z,7.70
2023-04-17T19:10:45.654Z,8.30
2023-04-17T19:13:25.204Z,6.90
2023-04-17T19:16:03.515Z,7.60
2023-04-17T19:18:34.744Z,9.50
2023-04-17T19:21:06.897Z,9.90
2023-04-17T19:23:39.493Z,10.30
2023-04-17T19:26:10.061Z,9.40
2023-04-17T19:28:45.751Z,9.00
2023-04-17T19:31:24.436Z,10.30
2023-04-17T19:34:02.605Z,11.00
2023-04-17T19:36:37.497Z,9.30
2023-04-17T19:39:16.282Z,10.30
2023-04-17T19:41:55.382Z,13.10
2023-04-17T19:44:29.675Z,11.20
2023-04-17T19:47:00.471Z,9.80
2023-04-17T19:49:32.129Z,8.70
2023-04-17T19:52:07.230Z,8.70
2023-04-17T19:54:46.661Z,7.70
2023-04-17T19:57:25.213Z,10.60
2023-04-17T20:00:03.293Z,11.70
2023-04-17T20:02:42.306Z,12.90
2023-04-17T20:05:20.533Z,12.00
2023-04-17T20:07:59.047Z,11.90
2023-04-17T20:10:31.750Z,8.50
2023-04-17T20:13:06.604Z,12.80
2023-04-17T20:15:36.905Z,11.20
2023-04-17T20:18:11.079Z,13.90
2023-04-17T20:20:45.971Z,12.80
2023-04-17T20:23:24.119Z,10.10
2023-04-17T20:26:03.665Z,11.70
2023-04-17T20:28:41.976Z,11.50
2023-04-17T20:31:20.571Z,14.10
2023-04-17T20:33:59.512Z,12.90
2023-04-17T20:36:30.120Z,11.70
2023-04-17T20:39:00.871Z,14.40
2023-04-17T20:41:31.579Z,15.30
2023-04-17T20:44:08.943Z,12.80
2023-04-17T20:46:47.050Z,15.00
2023-04-17T20:49:25.413Z,12.10
2023-04-17T20:52:03.815Z,8.80
2023-04-17T20:54:42.887Z,13.00
2023-04-17T20:57:20.878Z,12.80
2023-04-17T20:59:58.649Z,13.80
2023-04-17T21:02:30.699Z,14.60
2023-04-17T21:05:14.235Z,14.60
2023-04-17T21:07:55.006Z,13.60
2023-04-17T21:10:30.631Z,12.50
2023-04-17T21:13:01.629Z,14.90
2023-04-17T21:15:33.898Z,15.50
2023-04-17T21:18:10.551Z,15.80
2023-04-17T21:20:42.290Z,12.60
2023-04-17T21:23:21.019Z,14.50
2023-04-17T21:25:59.003Z,14.30
2023-04-17T21:28:31.909Z,13.60
2023-04-17T21:31:15.391Z,14.80
2023-04-17T21:33:46.046Z,12.50
2023-04-17T21:36:16.403Z,8.10
2023-04-17T21:38:48.358Z,14.50
2023-04-17T21:41:27.595Z,14.20
2023-04-17T21:44:06.400Z,14.70
2023-04-17T21:46:39.789Z,13.90
2023-04-17T21:49:17.863Z,11.90
2023-04-17T21:51:53.828Z,10.70
2023-04-17T21:54:31.760Z,14.90
2023-04-17T21:57:10.618Z,17.40
2023-04-17T21:59:48.296Z,11.90
2023-04-17T22:02:26.059Z,16.60
2023-04-17T22:05:06.607Z,9.30
2023-04-17T22:07:44.000Z,14.50
2023-04-17T22:10:30.661Z,12.50
2023-04-17T22:13:04.071Z,16.30
2023-04-17T22:15:34.930Z,16.00
2023-04-17T22:18:11.335Z,10.30
2023-04-17T22:20:48.909Z,15.70
2023-04-17T22:23:26.262Z,12.60
2023-04-17T22:26:04.069Z,15.30
2023-04-17T22:28:34.585Z,14.40
2023-04-17T22:31:07.174Z,16.90
2023-04-17T22:33:46.613Z,14.60
2023-04-17T22:36:24.272Z,15.90
2023-04-17T22:39:02.346Z,17.00
2023-04-17T22:41:33.677Z,18.40
2023-04-17T22:44:08.559Z,17.90
2023-04-17T22:46:45.664Z,16.90
2023-04-17T22:49:23.345Z,15.60
2023-04-17T22:52:00.863Z,15.20
2023-04-17T22:54:38.154Z,14.90
2023-04-17T22:57:16.211Z,15.40
2023-04-17T22:59:53.811Z,9.40
2023-04-17T23:02:31.335Z,16.90
2023-04-17T23:05:10.948Z,7.40
2023-04-17T23:07:42.050Z,17.50
2023-04-17T23:10:25.740Z,9.70
2023-04-17T23:13:04.559Z,9.60
2023-04-17T23:15:43.449Z,14.10
2023-04-17T23:18:14.153Z,15.50
2023-04-17T23:20:49.448Z,18.60
2023-04-17T23:23:27.533Z,15.70
2023-04-17T23:26:06.293Z,20.70
2023-04-17T23:28:43.893Z,15.50
2023-04-17T23:31:21.480Z,13.50
2023-04-17T23:33:58.966Z,18.10
2023-04-17T23:36:36.223Z,19.10
2023-04-17T23:39:06.825Z,19.20
2023-04-17T23:41:45.855Z,17.20
2023-04-17T23:44:16.149Z,18.80
2023-04-17T23:46:50.207Z,20.30
2023-04-17T23:49:20.517Z,10.50
2023-04-17T23:51:50.629Z,16.80
2023-04-17T23:54:28.251Z,18.40
2023-04-17T23:57:06.699Z,19.10
2023-04-17T23:59:37.202Z,7.20
